Time;durP1;ratioP1;P1;durP2;ratioP2;P2;SDS_P1;SDS_P2;PMS_P1;PMS_P2;Temp;Humidity;BMP_temperature;BMP_pressure;BME280_temperature;BME280_humidity;BME280_pressure;Samples;Min_cycle;Max_cycle;Signal;HPM_P1;HPM_P2
2022/03/28 00:07:14;;;;;;;12.90;6.10;;;10.00;87.80;;;;;;5940539;24;20429;-87
2022/03/28 01:40:22;;;;;;;;;;;;;;;;;;;;;
2022/03/28 03:05:23;;;;;;;17.63;8.60;;;7.80;96.90;;;;;;5974644;23;20409;-86
2022/03/28 03:22:15;;;;;;;15.80;8.90;;;7.90;97.00;;;;;;5995627;23;20429;-87
2022/03/28 03:25:25;;;;;;;17.43;9.43;;;7.80;97.00;;;;;;6083298;23;20453;-87
2022/03/28 03:37:52;;;;;;;18.33;8.63;;;7.90;97.10;;;;;;6078935;23;20436;-87
2022/03/28 03:44:02;;;;;;;16.33;8.87;;;7.70;97.10;;;;;;6075989;23;20405;-88
2022/03/28 03:56:28;;;;;;;14.67;7.93;;;7.70;97.50;;;;;;6085821;23;20406;-85
2022/03/28 03:59:22;;;;;;;17.10;8.53;;;7.70;97.30;;;;;;6078915;23;20456;-88
2022/03/28 04:02:09;;;;;;;16.37;8.13;;;7.80;97.40;;;;;;6092978;23;20459;-87
2022/03/28 04:05:14;;;;;;;13.83;8.47;;;7.70;97.50;;;;;;6092254;23;20742;-88
2022/03/28 04:42:19;;;;;;;19.13;9.10;;;7.50;98.50;;;;;;5930164;24;20492;-88
2022/03/28 04:48:41;;;;;;;15.17;8.73;;;7.50;99.20;;;;;;6067692;23;20436;-87
2022/03/28 04:52:10;;;;;;;14.03;8.13;;;7.50;99.10;;;;;;6090302;23;20528;-87
2022/03/28 04:54:54;;;;;;;15.30;8.70;;;7.50;98.70;;;;;;6062956;23;20484;-86
2022/03/28 04:58:03;;;;;;;19.70;8.87;;;7.40;99.00;;;;;;6084971;23;20422;-86
2022/03/28 05:04:11;;;;;;;18.40;9.20;;;7.40;99.00;;;;;;6079154;23;20402;-88
2022/03/28 05:31:16;;;;;;;17.43;10.30;;;7.30;99.90;;;;;;6032685;23;20475;-87
2022/03/28 05:33:57;;;;;;;16.55;9.88;;;7.30;99.90;;;;;;6074021;23;20406;-85
2022/03/28 05:36:45;;;;;;;21.33;9.38;;;7.50;99.70;;;;;;6078191;23;20229;-85
2022/03/28 05:42:14;;;;;;;17.63;9.53;;;7.40;99.80;;;;;;6075923;23;20485;-84
2022/03/28 06:10:02;;;;;;;29.37;10.73;;;7.80;98.60;;;;;;6120163;23;20407;-87
2022/03/28 06:29:52;;;;;;;18.43;10.93;;;8.00;98.50;;;;;;5946174;24;20520;-85
2022/03/28 10:21:14;;;;;;;28.60;17.00;;;16.90;63.20;;;;;;5673682;25;20868;-87
2022/03/28 10:34:25;;;;;;;21.97;13.87;;;17.20;63.50;;;;;;5854692;24;20415;-87
2022/03/28 10:37:49;;;;;;;36.67;17.67;;;17.30;63.70;;;;;;5990664;24;20488;-87
2022/03/28 10:55:10;;;;;;;25.53;16.30;;;18.10;62.40;;;;;;5868744;24;20451;-86
2022/03/28 11:50:27;;;;;;;27.50;15.70;;;19.30;52.40;;;;;;6116678;23;20406;-87
2022/03/28 11:53:46;;;;;;;;;;;;;;;;;;;;;
2022/03/28 12:00:01;;;;;;;25.33;16.20;;;19.40;51.70;;;;;;5990801;23;20410;-86
2022/03/28 12:02:34;;;;;;;23.67;13.67;;;19.60;51.40;;;;;;6075053;23;20744;-86
2022/03/28 12:08:30;;;;;;;25.57;15.90;;;19.60;51.00;;;;;;6074529;23;20911;-87
2022/03/28 12:11:28;;;;;;;31.40;16.03;;;19.70;50.40;;;;;;6076155;23;20929;-87
2022/03/28 12:13:58;;;;;;;23.97;16.77;;;19.70;50.70;;;;;;6076956;23;20471;-87
2022/03/28 12:16:25;;;;;;;24.97;16.00;;;19.70;51.10;;;;;;6076289;23;20417;-85
2022/03/28 12:18:58;;;;;;;32.70;17.03;;;19.60;51.10;;;;;;6079764;23;20437;-86
2022/03/28 12:21:29;;;;;;;22.93;16.63;;;19.60;51.00;;;;;;6093582;23;20389;-86
2022/03/28 12:24:00;;;;;;;22.30;16.80;;;19.50;50.80;;;;;;6084863;23;20421;-87
2022/03/28 12:26:43;;;;;;;29.50;17.13;;;19.60;51.50;;;;;;6075893;23;20402;-87
2022/03/28 12:29:20;;;;;;;28.10;17.03;;;19.70;51.90;;;;;;6077653;23;20453;-86
2022/03/28 12:31:51;;;;;;;31.33;17.97;;;19.90;52.00;;;;;;6076209;23;20427;-87
2022/03/28 12:34:21;;;;;;;26.20;17.23;;;19.80;52.50;;;;;;6077622;23;20420;-87
2022/03/28 12:41:03;;;;;;;28.53;16.50;;;19.80;53.90;;;;;;6066383;23;20432;-88
2022/03/28 12:43:40;;;;;;;26.37;15.83;;;19.90;53.70;;;;;;6077230;23;20422;-86
2022/03/28 12:46:36;;;;;;;25.50;14.87;;;19.90;53.80;;;;;;6077401;23;20421;-87
2022/03/28 12:49:11;;;;;;;21.80;13.83;;;19.90;54.20;;;;;;6099568;23;20496;-86
2022/03/28 12:51:40;;;;;;;25.70;15.70;;;20.00;54.60;;;;;;6121835;23;20392;-85
2022/03/28 12:54:09;;;;;;;21.90;13.00;;;19.90;54.30;;;;;;6123352;23;20409;-87
2022/03/28 12:56:58;;;;;;;28.60;15.77;;;19.90;54.10;;;;;;6118596;23;20413;-86
2022/03/28 12:59:28;;;;;;;23.50;15.70;;;19.90;54.00;;;;;;6121820;23;20420;-86
2022/03/28 13:02:08;;;;;;;20.70;14.40;;;20.00;54.00;;;;;;6117109;23;20415;-85
2022/03/28 13:04:43;;;;;;;21.93;13.93;;;20.10;54.40;;;;;;6109647;23;20517;-85
2022/03/28 13:07:11;;;;;;;24.87;15.53;;;20.00;54.30;;;;;;6108185;23;20412;-86
2022/03/28 13:09:41;;;;;;;23.50;15.73;;;20.00;54.20;;;;;;6106027;23;20444;-85
2022/03/28 13:12:25;;;;;;;29.20;14.20;;;20.10;54.30;;;;;;6105902;23;20412;-86
2022/03/28 13:15:01;;;;;;;23.47;13.30;;;20.10;53.90;;;;;;6107473;23;20787;-86
2022/03/28 13:17:33;;;;;;;18.13;12.80;;;20.10;53.90;;;;;;6107256;23;20416;-85
2022/03/28 13:20:03;;;;;;;23.07;14.23;;;20.20;53.70;;;;;;6107611;23;20401;-85
2022/03/28 13:22:40;;;;;;;23.00;14.13;;;20.30;53.30;;;;;;6109323;23;20386;-87
2022/03/28 13:25:10;;;;;;;21.83;14.50;;;20.30;52.80;;;;;;6110897;23;20413;-86
2022/03/28 13:30:47;;;;;;;20.23;12.80;;;20.40;52.40;;;;;;6110673;23;20395;-86
2022/03/28 13:36:06;;;;;;;25.93;13.80;;;20.20;52.00;;;;;;6109173;23;20863;-86
2022/03/28 13:38:40;;;;;;;19.30;13.43;;;20.40;51.70;;;;;;6109808;23;20767;-86
2022/03/28 13:44:07;;;;;;;20.57;13.60;;;20.60;51.10;;;;;;6108797;23;20432;-85
2022/03/28 13:52:35;;;;;;;20.13;12.70;;;20.70;49.20;;;;;;6121328;23;20412;-86
2022/03/28 14:08:03;;;;;;;15.37;11.87;;;20.90;48.40;;;;;;6098962;23;20528;-86
2022/03/28 14:36:49;;;;;;;15.37;11.33;;;20.80;45.80;;;;;;5963209;24;20409;-85
2022/03/28 14:39:33;;;;;;;21.00;12.50;;;20.90;45.70;;;;;;5963111;24;20556;-87
2022/03/28 14:42:20;;;;;;;18.87;11.53;;;20.90;45.70;;;;;;6088093;23;20478;-87
2022/03/28 14:45:20;;;;;;;20.67;12.70;;;21.00;44.80;;;;;;6116904;23;20511;-86
2022/03/28 14:48:07;;;;;;;21.30;11.93;;;21.00;44.70;;;;;;6107242;23;20531;-85
2022/03/28 14:50:37;;;;;;;18.50;10.17;;;21.00;43.90;;;;;;6106448;23;20471;-85
2022/03/28 14:53:09;;;;;;;18.50;11.83;;;21.00;43.60;;;;;;6107152;23;20421;-85
2022/03/28 14:55:58;;;;;;;17.20;11.57;;;21.00;43.50;;;;;;6106852;23;20425;-85
2022/03/28 15:01:47;;;;;;;15.30;9.57;;;21.10;43.30;;;;;;6106945;23;20400;-88
2022/03/28 15:04:31;;;;;;;18.37;12.57;;;21.10;43.70;;;;;;6107888;23;20392;-86
2022/03/28 15:07:25;;;;;;;19.47;11.90;;;21.10;43.30;;;;;;6109932;23;20487;-86
2022/03/28 15:10:20;;;;;;;19.33;12.10;;;21.10;43.50;;;;;;6106697;23;20444;-87
2022/03/28 15:13:14;;;;;;;15.83;11.73;;;21.10;42.60;;;;;;6097413;23;20432;-85
2022/03/28 15:19:02;;;;;;;15.63;11.50;;;21.20;42.70;;;;;;6119814;23;20425;-87
2022/03/28 15:22:11;;;;;;;20.83;11.53;;;21.30;41.90;;;;;;6114006;23;20480;-85
2022/03/28 15:28:18;;;;;;;18.10;11.50;;;21.20;42.00;;;;;;5996698;24;20440;-86
2022/03/28 15:31:25;;;;;;;20.40;11.90;;;21.10;41.90;;;;;;6114399;23;20452;-86
2022/03/28 15:34:13;;;;;;;15.70;11.47;;;21.00;41.70;;;;;;6114340;23;20428;-87
2022/03/28 15:37:10;;;;;;;17.90;11.10;;;20.80;42.00;;;;;;6114971;23;20464;-88
2022/03/28 15:39:39;;;;;;;14.10;11.37;;;20.80;42.30;;;;;;6103636;23;20436;-85
2022/03/28 15:42:14;;;;;;;16.43;11.20;;;20.80;42.10;;;;;;6109016;23;20405;-86
2022/03/28 15:44:45;;;;;;;19.10;12.50;;;20.80;41.90;;;;;;6111765;23;20807;-85
2022/03/28 15:47:20;;;;;;;15.90;11.27;;;20.70;41.90;;;;;;6113582;23;20441;-85
2022/03/28 15:49:54;;;;;;;15.63;10.90;;;20.70;42.00;;;;;;6111884;23;20707;-86
2022/03/28 15:52:27;;;;;;;15.50;11.47;;;20.70;41.90;;;;;;6107177;23;20424;-85
2022/03/28 15:54:55;;;;;;;16.67;10.90;;;20.80;42.00;;;;;;6109788;23;20409;-86
2022/03/28 15:57:36;;;;;;;20.53;11.37;;;20.70;41.50;;;;;;6121723;23;20460;-85
2022/03/28 16:00:04;;;;;;;14.90;9.80;;;20.90;41.40;;;;;;6122167;23;20448;-85
2022/03/28 16:02:32;;;;;;;19.33;10.87;;;20.90;41.60;;;;;;6113816;23;20408;-85
2022/03/28 16:04:59;;;;;;;14.40;10.57;;;20.80;41.80;;;;;;6121325;23;20524;-86
2022/03/28 16:07:29;;;;;;;15.50;10.40;;;20.80;41.60;;;;;;6117601;23;20405;-84
2022/03/28 16:09:58;;;;;;;18.17;9.23;;;20.90;41.60;;;;;;6118583;23;20492;-86
2022/03/28 16:12:25;;;;;;;17.50;11.07;;;21.00;41.80;;;;;;6121508;23;20409;-87
2022/03/28 16:14:54;;;;;;;16.73;10.80;;;21.10;41.50;;;;;;6122338;23;20762;-85
2022/03/28 16:17:23;;;;;;;13.57;9.30;;;21.30;40.70;;;;;;6114376;23;20413;-85
2022/03/28 16:19:51;;;;;;;18.13;9.80;;;21.40;39.90;;;;;;6108585;23;20483;-85
2022/03/28 16:25:31;;;;;;;11.43;8.40;;;20.90;39.80;;;;;;6120656;23;20400;-85
2022/03/28 16:28:05;;;;;;;11.80;9.17;;;20.80;40.00;;;;;;6121662;23;20433;-87
2022/03/28 16:30:37;;;;;;;14.10;9.37;;;20.70;40.20;;;;;;6118304;23;20439;-87
2022/03/28 16:33:13;;;;;;;11.43;7.80;;;20.60;40.50;;;;;;6108749;23;20775;-86
2022/03/28 16:35:54;;;;;;;14.80;9.63;;;20.50;40.70;;;;;;6110704;23;20507;-88
2022/03/28 16:41:14;;;;;;;14.23;8.57;;;20.20;41.30;;;;;;6119177;23;20424;-86
2022/03/28 16:43:58;;;;;;;;;;;;;;;;;;;;;
2022/03/28 16:46:42;;;;;;;14.43;9.70;;;20.20;41.90;;;;;;6117210;23;20411;-86
2022/03/28 16:54:54;;;;;;;15.20;11.27;;;20.20;41.80;;;;;;6094222;23;20463;-87
2022/03/28 16:57:31;;;;;;;15.67;11.07;;;20.10;42.10;;;;;;6108128;23;20500;-86
2022/03/28 17:00:01;;;;;;;14.70;8.13;;;20.20;42.40;;;;;;6107433;23;20423;-87
2022/03/28 17:02:34;;;;;;;12.77;8.23;;;20.20;42.30;;;;;;6112988;23;20356;-87
2022/03/28 17:05:12;;;;;;;12.20;8.37;;;20.20;42.20;;;;;;6108075;23;20407;-88
2022/03/28 17:07:58;;;;;;;15.00;9.30;;;20.00;42.40;;;;;;6108922;23;20445;-87
2022/03/28 17:13:16;;;;;;;13.13;8.40;;;19.90;42.90;;;;;;6108652;23;20476;-86
2022/03/28 17:16:07;;;;;;;13.00;7.80;;;19.80;42.90;;;;;;6111452;23;20387;-87
2022/03/28 17:18:57;;;;;;;15.17;8.93;;;19.80;42.90;;;;;;6107462;23;20589;-87
2022/03/28 17:21:24;;;;;;;12.60;8.50;;;19.70;43.40;;;;;;6107069;23;20423;-87
2022/03/28 17:24:04;;;;;;;15.60;9.83;;;19.70;43.20;;;;;;6105831;23;20375;-90
2022/03/28 17:32:35;;;;;;;11.77;7.97;;;19.50;42.90;;;;;;6105731;23;20492;-86
2022/03/28 17:35:15;;;;;;;12.87;8.23;;;19.40;43.00;;;;;;6107591;23;20498;-87
2022/03/28 17:40:39;;;;;;;10.10;8.10;;;19.30;43.10;;;;;;6100015;23;20407;-89
2022/03/28 17:43:31;;;;;;;13.10;8.70;;;19.30;43.20;;;;;;6106401;23;20817;-88
2022/03/28 17:46:12;;;;;;;13.43;8.00;;;19.20;43.70;;;;;;6066705;23;20436;-87
2022/03/28 17:51:26;;;;;;;13.00;8.93;;;19.00;44.30;;;;;;6102784;23;20420;-86
2022/03/28 17:53:57;;;;;;;14.10;8.40;;;18.90;44.10;;;;;;6107916;23;20409;-87
2022/03/28 17:56:35;;;;;;;12.70;8.40;;;18.90;44.10;;;;;;6108701;23;20413;-88
2022/03/28 17:59:07;;;;;;;11.83;8.80;;;18.90;44.00;;;;;;6111258;23;20531;-88
2022/03/28 18:01:43;;;;;;;9.77;8.17;;;18.80;44.20;;;;;;6110862;23;20403;-88
2022/03/28 18:04:43;;;;;;;14.90;10.80;;;18.70;44.90;;;;;;6110598;23;20392;-88
2022/03/28 18:07:16;;;;;;;11.30;8.70;;;18.70;45.80;;;;;;6115523;23;20421;-88
2022/03/28 18:10:03;;;;;;;14.60;8.70;;;18.60;46.30;;;;;;6114282;23;20429;-87
2022/03/28 18:12:41;;;;;;;17.87;9.77;;;18.50;46.80;;;;;;6107515;23;20480;-87
2022/03/28 18:15:21;;;;;;;12.50;8.63;;;18.30;47.40;;;;;;6114503;23;20408;-89
2022/03/28 18:17:48;;;;;;;15.53;8.80;;;18.20;47.80;;;;;;6110642;23;20411;-86
2022/03/28 18:20:19;;;;;;;17.60;9.57;;;18.10;48.00;;;;;;6116120;23;20868;-88
2022/03/28 18:22:53;;;;;;;17.27;10.50;;;18.00;48.20;;;;;;6115328;23;20360;-88
2022/03/28 18:28:08;;;;;;;11.90;8.70;;;17.80;48.30;;;;;;6119911;23;20408;-87
2022/03/28 18:30:40;;;;;;;13.27;7.63;;;17.70;48.40;;;;;;6116659;23;20443;-87
2022/03/28 18:33:17;;;;;;;16.40;8.17;;;17.60;48.50;;;;;;6120562;23;20396;-88
2022/03/28 18:36:02;;;;;;;13.03;7.87;;;17.40;49.00;;;;;;6110551;23;20470;-89
2022/03/28 18:38:38;;;;;;;11.43;7.90;;;17.40;49.20;;;;;;6108251;23;20423;-89
2022/03/28 18:44:03;;;;;;;11.80;7.90;;;17.20;49.50;;;;;;6105956;23;20472;-88
2022/03/28 18:46:35;;;;;;;14.50;7.60;;;17.00;49.70;;;;;;6107197;23;20374;-87
2022/03/28 18:52:35;;;;;;;15.33;8.00;;;16.90;50.10;;;;;;6109331;23;20402;-87
2022/03/28 22:40:10;;;;;;;;;;;;;;;;;;;;;
